Time;durP1;ratioP1;P1;durP2;ratioP2;P2;SDS_P1;SDS_P2;PMS_P1;PMS_P2;Temp;Humidity;BMP_temperature;BMP_pressure;BME280_temperature;BME280_humidity;BME280_pressure;Samples;Min_cycle;Max_cycle;Signal;HPM_P1;HPM_P2
2023/05/25 00:00:30;;;;;;;10.10;9.03;;;;;;;-144.30;83.34;85306.97;5070729;28;20208;-50
2023/05/25 00:02:58;;;;;;;11.47;8.47;;;;;;;-144.30;83.66;85297.03;5070001;28;25064;-52
2023/05/25 00:05:26;;;;;;;9.57;8.73;;;;;;;-144.30;83.65;85291.06;5070385;28;20204;-50
2023/05/25 00:07:53;;;;;;;8.83;8.03;;;;;;;-144.30;83.80;85297.03;5070222;28;20287;-51
2023/05/25 00:10:20;;;;;;;9.60;8.70;;;;;;;-144.30;83.91;85305.00;5070900;28;20206;-51
2023/05/25 00:12:47;;;;;;;9.00;8.30;;;;;;;-144.30;84.07;85267.22;5071021;28;20227;-53
2023/05/25 00:15:16;;;;;;;10.50;8.60;;;;;;;-144.30;84.38;85308.97;5070667;28;20235;-52
2023/05/25 00:17:42;;;;;;;8.93;8.13;;;;;;;-144.30;84.79;85281.13;5070629;28;20204;-53
2023/05/25 00:20:12;;;;;;;9.40;8.50;;;;;;;-144.30;85.66;85322.88;5070514;28;25068;-50
2023/05/25 00:22:43;;;;;;;10.77;8.80;;;;;;;-144.30;86.46;85314.94;5070437;28;20200;-53
2023/05/25 00:25:10;;;;;;;11.03;8.67;;;;;;;-144.30;87.02;85621.06;5070266;28;25075;-52
2023/05/25 00:27:37;;;;;;;9.77;8.97;;;;;;;-144.30;87.31;85330.84;5070628;28;20555;-51
2023/05/25 00:30:05;;;;;;;10.00;9.03;;;;;;;-144.30;87.98;85279.16;5070990;28;20196;-52
2023/05/25 00:32:33;;;;;;;11.13;10.17;;;;;;;-144.30;88.34;85295.06;5070674;28;20671;-51
2023/05/25 00:35:00;;;;;;;10.00;9.17;;;;;;;-144.30;89.29;85356.69;5070270;28;20200;-51
2023/05/25 00:37:27;;;;;;;12.43;9.77;;;;;;;-144.30;89.62;85754.28;5070347;28;20204;-51
2023/05/25 00:39:54;;;;;;;14.37;10.00;;;;;;;-144.30;89.54;85328.84;5070245;28;20227;-51
2023/05/25 00:42:23;;;;;;;10.30;9.37;;;;;;;-144.30;89.68;85344.75;5070543;28;20590;-51
2023/05/25 00:44:50;;;;;;;11.00;9.40;;;;;;;-144.30;89.71;85356.69;5070295;28;20200;-51
2023/05/25 00:47:17;;;;;;;10.77;9.67;;;;;;;-144.30;90.27;85326.84;5070321;28;20200;-52
2023/05/25 00:49:45;;;;;;;10.23;9.33;;;;;;;-144.30;90.75;85352.69;5070291;28;20197;-51
2023/05/25 00:52:13;;;;;;;11.90;10.47;;;;;;;-144.30;90.90;85348.72;5070139;28;20196;-50
2023/05/25 00:54:40;;;;;;;11.10;9.90;;;;;;;-144.30;90.74;85374.56;5070305;28;20200;-51
2023/05/25 00:57:08;;;;;;;14.27;9.33;;;;;;;-144.30;90.79;85336.78;5070485;28;20200;-53
2023/05/25 00:59:40;;;;;;;11.80;10.33;;;;;;;-144.30;91.16;85340.78;5070348;28;20216;-52
2023/05/25 01:02:08;;;;;;;11.77;10.10;;;;;;;-144.30;91.38;85338.78;5069882;28;20214;-51
2023/05/25 01:04:38;;;;;;;11.83;9.90;;;;;;;-144.30;91.90;85360.66;5049887;28;20594;-51
2023/05/25 01:07:09;;;;;;;11.17;9.17;;;;;;;-144.30;92.33;85408.34;5050303;28;20234;-51
2023/05/25 01:09:39;;;;;;;11.20;10.00;;;;;;;-144.30;92.79;85400.41;5050119;28;20196;-52
2023/05/25 01:12:08;;;;;;;12.30;10.67;;;;;;;-144.30;92.79;85392.47;5050329;28;20678;-50
2023/05/25 01:14:35;;;;;;;11.03;10.03;;;;;;;-144.30;92.62;85344.75;5049971;28;20683;-50
2023/05/25 01:17:03;;;;;;;11.80;10.60;;;;;;;-144.30;92.23;85344.75;5049807;28;20204;-51
2023/05/25 01:19:32;;;;;;;11.30;10.20;;;;;;;-144.30;92.28;85342.75;5049623;28;20228;-51
2023/05/25 01:22:05;;;;;;;11.03;9.97;;;;;;;-144.30;91.77;85380.53;5050042;28;20204;-52
2023/05/25 01:24:39;;;;;;;13.13;9.70;;;;;;;-144.30;91.91;85348.72;5049569;28;20204;-51
2023/05/25 01:27:12;;;;;;;13.00;10.90;;;;;;;-144.30;92.18;85420.28;5050099;28;20196;-51
2023/05/25 01:29:44;;;;;;;13.77;9.87;;;;;;;-144.30;91.85;85400.41;5049800;28;20209;-52
2023/05/25 01:32:12;;;;;;;11.23;10.10;;;;;;;-144.30;92.52;85402.41;5049857;28;20204;-52
2023/05/25 01:34:41;;;;;;;12.50;10.33;;;;;;;-144.30;92.91;85426.25;5049744;28;20201;-50
2023/05/25 01:37:12;;;;;;;11.97;10.77;;;;;;;-144.30;93.01;85448.13;5049915;28;20232;-52
2023/05/25 01:39:39;;;;;;;11.03;10.00;;;;;;;-144.30;93.16;85430.22;5049779;28;20286;-51
2023/05/25 01:42:06;;;;;;;10.60;9.60;;;;;;;-144.30;93.20;85364.63;5049567;28;20200;-52
2023/05/25 01:44:33;;;;;;;12.20;10.00;;;;;;;-144.30;93.28;85448.13;5049584;28;20243;-50
2023/05/25 01:47:05;;;;;;;11.30;10.20;;;;;;;-144.30;93.75;85420.28;5049579;28;20201;-51
2023/05/25 01:49:42;;;;;;;11.13;9.90;;;;;;;-144.30;93.92;85444.16;5049610;28;20600;-52
2023/05/25 01:52:18;;;;;;;13.53;10.13;;;;;;;-144.30;94.26;85398.41;5049974;28;20204;-52
2023/05/25 01:54:51;;;;;;;12.33;11.13;;;;;;;-144.30;94.33;85450.09;5049347;28;20192;-52
2023/05/25 01:57:19;;;;;;;15.83;10.60;;;;;;;-144.30;94.07;85468.00;5049513;28;20229;-53
2023/05/25 01:59:48;;;;;;;11.10;10.00;;;;;;;-144.30;94.06;85416.31;5049385;28;20255;-52
2023/05/25 02:02:17;;;;;;;11.87;10.37;;;;;;;-144.30;94.48;85432.22;5049692;28;20742;-52
2023/05/25 02:04:44;;;;;;;11.87;10.87;;;;;;;-144.30;94.66;85448.13;5049268;28;20188;-51
2023/05/25 02:07:13;;;;;;;13.67;10.90;;;;;;;-144.30;94.48;85468.00;5049418;28;20196;-52
2023/05/25 02:09:40;;;;;;;11.23;10.27;;;;;;;-144.30;94.41;85458.06;5049890;28;20201;-52
2023/05/25 02:12:07;;;;;;;11.50;10.40;;;;;;;-144.30;94.40;85479.94;5049446;28;20647;-51
2023/05/25 02:14:34;;;;;;;11.23;10.13;;;;;;;-144.30;94.11;85462.03;5052686;28;20715;-51
2023/05/25 02:17:02;;;;;;;17.50;10.90;;;;;;;-144.30;93.70;85446.13;5053075;28;20668;-51
2023/05/25 02:19:29;;;;;;;12.53;10.20;;;;;;;-144.30;93.60;85460.03;5052979;28;20729;-50
2023/05/25 02:21:56;;;;;;;10.73;9.53;;;;;;;-144.30;93.76;85416.31;5052823;28;20219;-51
2023/05/25 02:24:25;;;;;;;11.33;10.07;;;;;;;-144.30;93.70;85462.03;5052682;28;20564;-51
2023/05/25 02:26:52;;;;;;;10.73;9.73;;;;;;;-144.30;93.61;85487.88;5053081;28;20586;-51
2023/05/25 02:29:19;;;;;;;12.17;9.20;;;;;;;-144.30;92.87;85442.16;5052794;28;20202;-51
2023/05/25 02:31:46;;;;;;;9.70;8.90;;;;;;;-144.30;92.76;85446.13;5053008;28;20707;-53
2023/05/25 02:34:14;;;;;;;11.30;9.60;;;;;;;-144.30;92.81;85444.16;5052934;28;20197;-51
2023/05/25 02:36:42;;;;;;;9.97;9.00;;;;;;;-144.30;92.59;85464.03;5053127;28;20315;-52
2023/05/25 02:39:09;;;;;;;9.43;8.57;;;;;;;-144.30;92.92;85464.03;5052586;28;20258;-51
2023/05/25 02:41:38;;;;;;;9.53;8.63;;;;;;;-144.30;92.99;85475.94;5052629;28;20209;-51
2023/05/25 02:44:05;;;;;;;11.50;8.83;;;;;;;-144.30;93.16;85507.75;5052528;28;20196;-50
2023/05/25 02:46:33;;;;;;;15.73;9.40;;;;;;;-144.30;93.42;85499.81;5052573;28;20266;-50
2023/05/25 02:49:00;;;;;;;9.53;8.67;;;;;;;-144.30;93.78;85487.88;5052248;28;20193;-51
2023/05/25 02:51:27;;;;;;;12.40;9.60;;;;;;;-144.30;93.39;85483.91;5052421;28;20287;-51
2023/05/25 02:53:54;;;;;;;9.80;8.93;;;;;;;-144.30;93.40;85517.69;5052430;28;20197;-52
2023/05/25 02:56:21;;;;;;;10.77;9.80;;;;;;;-144.30;93.76;85497.81;5052357;28;20203;-52
2023/05/25 02:58:50;;;;;;;9.50;8.60;;;;;;;-144.30;94.12;85503.78;5052166;28;20290;-53
2023/05/25 03:01:17;;;;;;;9.07;8.03;;;;;;;-144.30;93.80;85509.75;5052379;28;20204;-52
2023/05/25 03:03:45;;;;;;;9.70;8.70;;;;;;;-144.30;93.77;85503.78;5052479;28;20567;-52
2023/05/25 03:06:12;;;;;;;9.53;8.63;;;;;;;-144.30;93.60;85501.78;5052039;28;20641;-53
2023/05/25 03:08:40;;;;;;;9.30;8.10;;;;;;;-144.30;93.28;85515.72;5052301;28;20914;-54
2023/05/25 03:11:07;;;;;;;9.63;8.60;;;;;;;-144.30;93.00;85507.75;5068760;28;20200;-53
2023/05/25 03:13:34;;;;;;;8.67;8.07;;;;;;;-144.30;93.01;85473.97;5071754;28;20563;-52
2023/05/25 03:16:02;;;;;;;10.40;8.23;;;;;;;-144.30;92.21;85468.00;5071913;28;20207;-51
2023/05/25 03:18:29;;;;;;;9.03;8.23;;;;;;;-144.30;91.74;85440.16;5072031;28;20230;-53
2023/05/25 03:20:56;;;;;;;9.43;8.10;;;;;;;-144.30;91.48;85432.22;5072041;28;20196;-53
2023/05/25 03:23:23;;;;;;;8.83;7.97;;;;;;;-144.30;91.74;85452.09;5071857;28;20610;-54
2023/05/25 03:25:50;;;;;;;8.90;8.00;;;;;;;-144.30;91.03;85475.94;5071752;28;20204;-54
2023/05/25 03:28:17;;;;;;;10.13;8.13;;;;;;;-144.30;90.24;85442.16;5071953;28;20593;-53
2023/05/25 03:30:44;;;;;;;8.57;7.87;;;;;;;-144.30;89.83;85380.53;5071499;28;20188;-52
2023/05/25 03:33:14;;;;;;;9.57;7.77;;;;;;;-144.30;89.09;85400.41;5055636;28;20235;-51
2023/05/25 03:35:41;;;;;;;7.97;7.37;;;;;;;-144.30;88.30;85448.13;5071337;28;20289;-51
2023/05/25 03:38:08;;;;;;;9.10;8.30;;;;;;;-144.30;88.11;85384.50;5071196;28;20216;-55
2023/05/25 03:40:35;;;;;;;14.90;7.83;;;;;;;-144.30;87.08;85372.56;5071224;28;20228;-52
2023/05/25 03:43:02;;;;;;;8.23;7.57;;;;;;;-144.30;86.71;85362.63;5070930;28;20220;-52
2023/05/25 03:45:29;;;;;;;8.37;7.77;;;;;;;-144.30;86.20;85402.41;5070745;28;20235;-53
2023/05/25 03:47:56;;;;;;;8.23;7.23;;;;;;;-144.30;85.69;85299.03;5071122;28;20216;-52
2023/05/25 03:50:24;;;;;;;8.30;7.30;;;;;;;-144.30;83.18;85241.38;5071055;28;20227;-52
2023/05/25 03:52:51;;;;;;;8.13;7.05;;;;;;;-144.30;79.31;85169.81;5071130;28;20224;-53
2023/05/25 03:55:18;;;;;;;11.02;7.22;;;;;;;-144.30;76.25;85070.44;5070994;28;20648;-53
2023/05/25 03:57:45;;;;;;;8.07;7.32;;;;;;;-144.30;72.73;84951.16;5070610;28;20219;-55
2023/05/25 04:00:13;;;;;;;7.53;6.57;;;;;;;-144.30;69.54;84827.94;5070095;28;20749;-53
2023/05/25 04:02:40;;;;;;;7.53;6.93;;;;;;;-144.30;67.31;84758.38;5070898;28;20232;-53
2023/05/25 04:05:08;;;;;;;7.63;6.97;;;;;;;-144.30;65.69;84700.72;5070502;28;21230;-55
2023/05/25 04:07:36;;;;;;;8.57;6.68;;;;;;;-144.30;64.23;84676.88;5069266;28;20274;-53
2023/05/25 04:10:03;;;;;;;8.20;6.72;;;;;;;-144.30;63.41;84633.16;5070111;28;20192;-51
2023/05/25 04:12:31;;;;;;;6.85;6.35;;;;;;;-144.30;62.41;84597.38;5061409;28;20231;-52
2023/05/25 04:14:58;;;;;;;7.03;6.50;;;;;;;-144.30;61.05;84531.78;5052520;28;20239;-52
2023/05/25 04:17:25;;;;;;;7.30;6.70;;;;;;;-144.30;60.29;84597.38;5064624;28;20199;-52
2023/05/25 04:19:52;;;;;;;11.50;8.27;;;;;;;-144.30;61.23;84595.38;5069899;28;20255;-53
2023/05/25 04:22:19;;;;;;;9.20;8.32;;;;;;;-144.30;61.32;84593.41;5069357;28;20196;-52
2023/05/25 04:24:48;;;;;;;8.57;7.88;;;;;;;-144.30;59.95;84515.88;5066794;28;20202;-52
2023/05/25 04:27:19;;;;;;;8.73;7.43;;;;;;;-144.30;59.14;84468.19;5069718;28;20196;-51
2023/05/25 04:29:48;;;;;;;7.45;6.75;;;;;;;-144.30;58.19;84442.34;5070265;28;20203;-52
2023/05/25 04:32:17;;;;;;;8.25;7.50;;;;;;;-144.30;57.14;84410.56;5070428;28;20194;-52
2023/05/25 04:34:45;;;;;;;7.90;7.07;;;;;;;-144.30;56.84;84370.81;5067819;28;20203;-51
2023/05/25 04:37:12;;;;;;;8.65;6.60;;;;;;;-144.30;56.56;84335.03;5066580;28;20199;-53
2023/05/25 04:39:40;;;;;;;10.68;7.35;;;;;;;-144.30;55.84;84301.25;5070598;28;20228;-53
2023/05/25 04:42:08;;;;;;;7.53;6.93;;;;;;;-144.30;54.38;84140.28;5066367;28;20585;-53
2023/05/25 04:44:36;;;;;;;8.13;6.60;;;;;;;-144.30;51.88;84015.09;5065668;28;20277;-53
2023/05/25 04:47:03;;;;;;;6.75;6.25;;;;;;;-144.30;49.64;83913.75;5072747;28;20192;-53
2023/05/25 04:49:30;;;;;;;6.75;6.15;;;;;;;-144.30;49.89;83965.41;5070142;28;20196;-52
2023/05/25 04:51:57;;;;;;;6.57;6.07;;;;;;;-144.30;49.87;83891.88;5070024;28;20199;-54
2023/05/25 04:54:24;;;;;;;8.02;5.80;;;;;;;-144.30;48.44;83744.84;5070600;28;20196;-54
2023/05/25 04:56:52;;;;;;;6.60;5.93;;;;;;;-144.30;47.04;83651.47;5070245;28;20196;-53
2023/05/25 04:59:20;;;;;;;8.68;6.32;;;;;;;-144.30;45.44;83568.00;5070034;28;20285;-53
2023/05/25 05:01:47;;;;;;;6.93;6.32;;;;;;;-144.30;44.68;83490.53;5070247;28;20563;-54
2023/05/25 05:04:15;;;;;;;7.07;6.38;;;;;;;-144.30;43.73;83450.78;5069815;28;20236;-53
2023/05/25 05:06:42;;;;;;;12.38;9.43;;;;;;;-144.30;43.87;83407.06;5069912;28;20742;-54
2023/05/25 05:09:09;;;;;;;7.78;6.50;;;;;;;-144.30;43.93;83482.56;5070364;28;20210;-53
2023/05/25 05:11:36;;;;;;;10.23;7.65;;;;;;;-144.30;44.52;83524.31;5070284;28;20205;-54
2023/05/25 05:14:04;;;;;;;6.55;5.97;;;;;;;-144.30;45.36;83564.03;5069949;28;20323;-53
2023/05/25 05:16:33;;;;;;;8.05;5.68;;;;;;;-144.30;45.21;83554.09;5069855;28;20213;-54
2023/05/25 05:19:01;;;;;;;6.53;6.13;;;;;;;-144.30;45.20;83566.03;5070345;28;20279;-53
2023/05/25 05:21:28;;;;;;;6.28;5.65;;;;;;;-144.30;45.49;83583.91;5069997;28;20670;-54
2023/05/25 05:23:56;;;;;;;8.23;5.70;;;;;;;-144.30;45.86;83631.59;5069901;28;20217;-55
2023/05/25 05:26:23;;;;;;;6.80;6.25;;;;;;;-144.30;45.66;83595.81;5068782;28;20235;-53
2023/05/25 05:28:51;;;;;;;15.38;12.23;;;;;;;-144.30;45.12;83516.34;5049657;28;20260;-54
2023/05/25 05:31:18;;;;;;;7.13;6.55;;;;;;;-144.30;44.86;83542.19;5049478;28;20702;-53
2023/05/25 05:33:46;;;;;;;11.68;10.60;;;;;;;-144.30;45.03;83558.06;5049381;28;20234;-53
2023/05/25 05:36:13;;;;;;;8.00;7.28;;;;;;;-144.30;46.26;83653.44;5063818;28;20236;-55
2023/05/25 05:38:41;;;;;;;7.57;6.80;;;;;;;-144.30;47.62;83796.50;5068997;28;20233;-53
2023/05/25 05:41:12;;;;;;;6.65;6.05;;;;;;;-144.30;48.30;83800.50;5068810;28;20233;-52
2023/05/25 05:43:40;;;;;;;9.95;8.48;;;;;;;-144.30;47.90;83766.72;5068814;28;20658;-53
2023/05/25 05:46:08;;;;;;;8.57;6.60;;;;;;;-144.30;47.67;83728.97;5068521;28;20263;-53
2023/05/25 05:48:35;;;;;;;6.82;6.40;;;;;;;-144.30;47.23;83746.84;5070667;28;25078;-53
2023/05/25 05:51:04;;;;;;;7.28;6.57;;;;;;;-144.30;46.74;83631.59;5072552;28;25071;-54
2023/05/25 05:53:31;;;;;;;6.22;5.72;;;;;;;-144.30;45.86;83647.50;5073152;28;25130;-53
2023/05/25 05:55:58;;;;;;;6.72;6.22;;;;;;;-144.30;45.19;83573.97;5073107;28;20365;-52
2023/05/25 05:58:26;;;;;;;9.50;7.72;;;;;;;-144.30;45.32;83572.00;5073015;28;25067;-53
2023/05/25 06:00:53;;;;;;;8.77;6.75;;;;;;;-144.30;45.65;83377.28;5072750;28;20241;-54
2023/05/25 06:03:20;;;;;;;12.88;6.18;;;;;;;-144.30;47.20;83715.03;5072916;28;20234;-52
2023/05/25 06:05:47;;;;;;;8.02;6.90;;;;;;;-144.30;48.49;83800.50;5072046;28;20628;-52
2023/05/25 06:08:15;;;;;;;9.65;7.10;;;;;;;-144.30;49.78;83905.81;5072701;28;20226;-52
2023/05/25 06:10:42;;;;;;;11.57;6.18;;;;;;;-144.30;49.52;83872.03;5072921;28;20232;-53
2023/05/25 06:13:10;;;;;;;9.45;6.70;;;;;;;-144.30;49.57;83842.22;5071904;28;25104;-53
2023/05/25 06:15:37;;;;;;;11.65;7.00;;;;;;;-144.30;49.44;83852.16;5072021;28;25113;-52
2023/05/25 06:18:04;;;;;;;11.73;6.47;;;;;;;-144.30;49.93;83893.88;5072081;28;20225;-52
2023/05/25 06:20:31;;;;;;;9.50;6.47;;;;;;;-144.30;49.84;83977.34;5071845;28;20590;-53
2023/05/25 06:22:58;;;;;;;10.48;8.95;;;;;;;-144.30;49.77;83981.31;5072229;28;25076;-53
2023/05/25 06:25:26;;;;;;;6.43;5.88;;;;;;;-144.30;49.68;83971.38;5072194;28;20213;-53
2023/05/25 06:27:53;;;;;;;10.98;5.97;;;;;;;-144.30;49.53;83949.50;5069200;28;20306;-51
2023/05/25 06:30:20;;;;;;;11.43;6.28;;;;;;;-144.30;49.34;84211.81;5072126;28;20624;-52
2023/05/25 06:32:47;;;;;;;10.50;6.22;;;;;;;-144.30;49.04;83921.69;5072497;28;20611;-52
2023/05/25 06:35:18;;;;;;;6.38;5.78;;;;;;;-144.30;48.95;83877.97;5071249;28;20225;-53
2023/05/25 06:37:45;;;;;;;8.18;6.30;;;;;;;-144.30;49.07;83911.75;5052468;28;20315;-53
2023/05/25 06:40:13;;;;;;;13.70;6.45;;;;;;;-144.30;49.24;83881.97;5062647;28;20225;-53
2023/05/25 06:42:41;;;;;;;9.32;6.65;;;;;;;-144.30;49.39;83879.97;5072026;28;20207;-52
2023/05/25 06:45:09;;;;;;;13.30;5.93;;;;;;;-144.30;48.64;83844.19;5072715;28;20202;-53
2023/05/25 06:47:36;;;;;;;9.43;6.00;;;;;;;-144.30;47.60;83734.91;5071698;28;20556;-53
2023/05/25 06:50:04;;;;;;;6.75;5.82;;;;;;;-144.30;46.80;83651.47;5071879;28;20206;-52
2023/05/25 06:52:31;;;;;;;11.73;6.30;;;;;;;-144.30;46.50;83603.78;5071936;28;20723;-53
2023/05/25 06:54:58;;;;;;;11.43;8.20;;;;;;;-144.30;46.12;83514.38;5071780;28;20219;-53
2023/05/25 06:57:24;;;;;;;10.13;6.75;;;;;;;-144.30;44.94;83432.91;5069000;28;20199;-53
2023/05/25 06:59:53;;;;;;;11.73;6.53;;;;;;;-144.30;44.14;83266.03;5071160;28;20204;-53
2023/05/25 07:02:20;;;;;;;8.85;6.97;;;;;;;-144.30;42.76;83270.00;5071802;28;20242;-54
2023/05/25 07:04:47;;;;;;;11.10;7.05;;;;;;;-144.30;42.71;83311.72;5071680;28;20192;-54
2023/05/25 07:07:14;;;;;;;9.45;8.52;;;;;;;-144.30;42.86;83277.94;5071385;28;20195;-53
2023/05/25 07:09:41;;;;;;;10.02;6.60;;;;;;;-144.30;42.20;83275.94;5071392;28;20314;-54
2023/05/25 07:12:09;;;;;;;18.45;7.13;;;;;;;-144.30;42.25;83365.34;5071728;28;20188;-52
2023/05/25 07:14:36;;;;;;;10.75;8.35;;;;;;;-144.30;42.31;83305.75;5071756;28;20262;-52
2023/05/25 07:17:05;;;;;;;14.60;6.95;;;;;;;-144.30;41.86;83264.03;5070579;28;20200;-51
2023/05/25 07:19:32;;;;;;;13.68;7.65;;;;;;;-144.30;41.54;83262.03;5066456;28;20206;-52
2023/05/25 07:21:59;;;;;;;18.70;6.70;;;;;;;-144.30;40.62;83325.63;5071690;28;20306;-53
2023/05/25 07:24:26;;;;;;;12.15;8.05;;;;;;;-144.30;40.02;83341.50;5071632;28;20575;-52
2023/05/25 07:26:53;;;;;;;7.88;6.60;;;;;;;-144.30;39.05;83019.69;5071864;28;20225;-53
2023/05/25 07:29:20;;;;;;;18.30;7.85;;;;;;;-144.30;38.24;82821.03;5071776;28;20196;-53
2023/05/25 07:31:47;;;;;;;12.93;8.40;;;;;;;-144.30;37.74;82825.00;5071642;28;20197;-53
2023/05/25 07:34:15;;;;;;;12.07;8.80;;;;;;;-144.30;37.28;82791.22;5071633;28;20676;-53
2023/05/25 07:36:42;;;;;;;16.10;9.45;;;;;;;-144.30;36.88;82781.28;5068982;28;20223;-53
2023/05/25 07:39:10;;;;;;;15.02;10.05;;;;;;;-144.30;36.91;82817.06;5071027;28;20223;-53
2023/05/25 07:41:37;;;;;;;11.77;8.43;;;;;;;-144.30;37.30;82854.78;5071292;28;20628;-53
2023/05/25 07:44:04;;;;;;;15.82;8.20;;;;;;;-144.30;37.30;82761.44;5070967;28;20236;-53
2023/05/25 07:46:31;;;;;;;16.73;10.15;;;;;;;-144.30;36.50;82674.03;5070644;28;20332;-54
2023/05/25 07:48:58;;;;;;;8.95;6.70;;;;;;;-144.30;35.98;82689.91;5070773;28;20611;-54
2023/05/25 07:51:30;;;;;;;11.75;8.57;;;;;;;-144.30;36.48;82608.47;5071559;28;20253;-53
2023/05/25 07:53:57;;;;;;;8.52;6.70;;;;;;;-144.30;36.28;82656.16;5070853;28;20192;-53
2023/05/25 07:56:25;;;;;;;9.07;6.50;;;;;;;-144.30;36.41;82610.47;5071229;28;20196;-53
2023/05/25 07:58:52;;;;;;;7.45;6.82;;;;;;;-144.30;36.11;82523.06;5070314;28;20200;-53
2023/05/25 08:01:19;;;;;;;6.93;6.28;;;;;;;-144.30;35.62;82473.41;5070202;28;20249;-53
2023/05/25 08:03:46;;;;;;;7.63;6.53;;;;;;;-144.30;35.54;82527.03;5069433;28;20201;-53
2023/05/25 08:06:12;;;;;;;8.57;7.05;;;;;;;-144.30;35.99;82594.56;5070813;28;20194;-53
2023/05/25 08:08:43;;;;;;;11.90;6.75;;;;;;;-144.30;36.04;82586.63;5070943;28;20196;-53
2023/05/25 08:11:10;;;;;;;6.20;5.63;;;;;;;-144.30;36.03;82606.50;5070121;28;20237;-53
2023/05/25 08:13:37;;;;;;;6.00;5.25;;;;;;;-144.30;36.93;82769.38;5070839;28;20192;-54
2023/05/25 08:16:04;;;;;;;6.22;5.82;;;;;;;-144.30;37.81;82882.59;5070741;28;20196;-53
2023/05/25 08:18:31;;;;;;;6.55;6.15;;;;;;;-144.30;39.07;83005.78;5071007;28;20603;-53
2023/05/25 08:20:58;;;;;;;6.28;5.68;;;;;;;-144.30;39.92;83063.38;5070575;28;20222;-53
2023/05/25 08:23:25;;;;;;;8.77;5.90;;;;;;;-144.30;40.07;83122.97;5070656;28;20200;-54
2023/05/25 08:25:53;;;;;;;6.47;6.07;;;;;;;-144.30;40.48;83121.00;5070446;28;20199;-54
2023/05/25 08:28:21;;;;;;;11.52;6.32;;;;;;;-144.30;40.60;83117.03;5070438;28;20206;-53
2023/05/25 08:30:48;;;;;;;6.78;6.13;;;;;;;-144.30;41.22;83198.47;5070374;28;20192;-53
2023/05/25 08:33:15;;;;;;;18.88;7.38;;;;;;;-144.30;41.80;83309.72;5070739;28;20698;-53
2023/05/25 08:35:42;;;;;;;7.05;6.25;;;;;;;-144.30;41.96;83254.09;5070628;28;20621;-53
2023/05/25 08:38:09;;;;;;;10.82;6.85;;;;;;;-144.30;42.33;83299.78;5070657;28;20196;-52
2023/05/25 08:40:36;;;;;;;7.65;6.50;;;;;;;-144.30;42.10;83297.81;5070807;28;20216;-53
2023/05/25 08:43:05;;;;;;;6.70;5.78;;;;;;;-144.30;41.75;83321.66;5070359;28;20196;-54
2023/05/25 08:45:32;;;;;;;6.68;6.07;;;;;;;-144.30;41.75;83208.41;5070235;28;20206;-54
2023/05/25 08:48:01;;;;;;;7.75;6.47;;;;;;;-144.30;40.70;83113.03;5070332;28;20199;-54
2023/05/25 08:50:30;;;;;;;6.10;5.60;;;;;;;-144.30;39.79;83041.53;5070278;28;20303;-53
2023/05/25 08:53:00;;;;;;;7.75;7.03;;;;;;;-144.30;39.27;83035.56;5070144;28;20329;-54
2023/05/25 08:55:34;;;;;;;8.75;6.72;;;;;;;-144.30;38.34;83007.75;5070127;28;20196;-53
2023/05/25 08:58:07;;;;;;;7.40;6.22;;;;;;;-144.30;38.61;82970.00;5069951;28;20200;-54
2023/05/25 09:00:36;;;;;;;9.98;7.07;;;;;;;-144.30;38.53;82916.38;5069998;28;20224;-54
2023/05/25 09:03:10;;;;;;;6.43;5.97;;;;;;;-144.30;37.86;82886.56;5070248;28;20200;-53
2023/05/25 09:05:37;;;;;;;8.85;5.50;;;;;;;-144.30;37.50;82906.44;5070085;28;20581;-53
2023/05/25 09:08:06;;;;;;;11.65;6.47;;;;;;;-144.30;37.55;82821.03;5069929;28;20196;-53
2023/05/25 09:10:35;;;;;;;6.43;5.70;;;;;;;-144.30;36.83;82775.34;5070084;28;20290;-53
2023/05/25 09:13:04;;;;;;;5.78;4.88;;;;;;;-144.30;36.02;82769.38;5069892;28;20207;-54
2023/05/25 09:15:31;;;;;;;5.47;5.05;;;;;;;-144.30;35.50;82769.38;5069860;28;20235;-54
2023/05/25 09:17:58;;;;;;;5.40;5.00;;;;;;;-144.30;35.70;82789.25;5069996;28;20223;-53
2023/05/25 09:20:30;;;;;;;6.28;4.60;;;;;;;-144.30;35.54;82713.75;5069821;28;20205;-55
2023/05/25 09:22:57;;;;;;;7.50;5.10;;;;;;;-144.30;35.66;82735.59;5074445;28;20213;-54
2023/05/25 09:25:27;;;;;;;5.80;5.35;;;;;;;-144.30;35.57;82652.19;5076383;28;20202;-53
2023/05/25 09:27:55;;;;;;;6.10;5.53;;;;;;;-144.30;35.58;82662.09;5076481;28;20587;-53
2023/05/25 09:30:23;;;;;;;6.07;4.95;;;;;;;-144.30;33.97;82558.81;5076518;28;20257;-55
2023/05/25 09:32:51;;;;;;;6.45;4.55;;;;;;;-144.30;34.06;82316.50;5076113;28;20294;-54
2023/05/25 09:35:18;;;;;;;4.65;4.00;;;;;;;-144.30;32.64;82461.50;5072677;28;20204;-53
2023/05/25 09:37:46;;;;;;;4.90;4.50;;;;;;;-144.30;32.22;82429.72;5055738;28;20203;-54
2023/05/25 09:40:13;;;;;;;3.83;3.63;;;;;;;-144.30;31.88;82316.50;5056547;28;20238;-53
2023/05/25 09:42:41;;;;;;;4.55;4.05;;;;;;;-144.30;32.13;82499.22;5056311;28;20224;-53
2023/05/25 09:45:08;;;;;;;5.07;4.68;;;;;;;-144.30;32.15;82517.09;5056327;28;20214;-53
2023/05/25 09:47:37;;;;;;;8.30;4.18;;;;;;;-144.30;31.92;82529.03;5064377;28;20210;-54
2023/05/25 09:50:05;;;;;;;8.15;4.68;;;;;;;-144.30;31.95;82527.03;5057202;28;20215;-54
2023/05/25 09:52:32;;;;;;;6.88;3.85;;;;;;;-144.30;30.88;82517.09;5065935;28;20914;-53
2023/05/25 09:54:59;;;;;;;4.55;4.25;;;;;;;-144.30;31.59;82459.50;5074369;28;20226;-54
2023/05/25 09:57:28;;;;;;;4.80;4.50;;;;;;;-144.30;31.23;82433.69;5074454;28;20614;-53
2023/05/25 09:59:54;;;;;;;4.65;4.28;;;;;;;-144.30;31.41;82344.31;5072150;28;20611;-55
2023/05/25 10:02:22;;;;;;;4.72;4.32;;;;;;;-144.30;31.93;82340.34;5074414;28;20242;-53
2023/05/25 10:04:50;;;;;;;4.85;4.53;;;;;;;-144.30;31.68;82495.25;5076201;28;20222;-53
2023/05/25 10:07:18;;;;;;;5.13;4.70;;;;;;;-144.30;32.28;82562.78;5075993;28;20651;-53
2023/05/25 10:09:47;;;;;;;6.25;4.47;;;;;;;-144.30;32.09;82614.44;5076113;28;20285;-55
2023/05/25 10:12:19;;;;;;;5.13;4.15;;;;;;;-144.30;32.41;82612.44;5075535;28;20678;-58
2023/05/25 10:14:49;;;;;;;7.50;4.07;;;;;;;-144.30;32.39;82640.25;5075948;28;20746;-54
2023/05/25 10:17:24;;;;;;;5.05;4.22;;;;;;;-144.30;32.56;82753.50;5075133;28;20231;-56
2023/05/25 10:19:59;;;;;;;4.57;4.22;;;;;;;-144.30;34.30;82950.16;5075956;28;20219;-56
2023/05/25 10:22:32;;;;;;;5.30;5.00;;;;;;;-144.30;35.39;82993.84;5074260;28;20215;-53
2023/05/25 10:25:07;;;;;;;5.00;4.60;;;;;;;-144.30;35.76;83047.50;5071540;28;20224;-52
2023/05/25 10:27:39;;;;;;;5.45;4.80;;;;;;;-144.30;36.22;83124.97;5074704;28;20274;-53
2023/05/25 10:30:08;;;;;;;6.25;4.78;;;;;;;-144.30;35.97;83128.94;5074597;28;20206;-54
2023/05/25 10:32:37;;;;;;;4.68;4.38;;;;;;;-144.30;36.00;83117.03;5074734;28;20203;-53
2023/05/25 10:35:06;;;;;;;6.18;4.65;;;;;;;-144.30;35.80;83162.72;5071567;28;20196;-53
2023/05/25 10:37:34;;;;;;;4.72;4.43;;;;;;;-144.30;36.26;83206.41;5072762;28;20207;-54
2023/05/25 10:40:02;;;;;;;7.00;4.93;;;;;;;-144.30;36.12;83246.16;5072443;28;20683;-53
2023/05/25 10:42:30;;;;;;;5.57;4.75;;;;;;;-144.30;35.78;83283.91;5072060;28;20310;-54
2023/05/25 10:44:57;;;;;;;5.00;4.28;;;;;;;-144.30;36.21;83333.56;5072693;28;20733;-53
2023/05/25 10:47:25;;;;;;;5.07;4.68;;;;;;;-144.30;36.35;83341.50;5072681;28;20291;-54
2023/05/25 10:49:54;;;;;;;5.85;4.72;;;;;;;-144.30;36.90;83369.34;5072429;28;20199;-53
2023/05/25 10:52:26;;;;;;;5.65;5.15;;;;;;;-144.30;37.46;83464.69;5072514;28;20192;-54
2023/05/25 10:54:56;;;;;;;7.53;4.95;;;;;;;-144.30;38.18;83528.28;5072295;28;20287;-53
2023/05/25 10:57:24;;;;;;;5.57;5.05;;;;;;;-144.30;38.08;83562.06;5072026;28;20694;-54
2023/05/25 10:59:54;;;;;;;4.80;4.43;;;;;;;-144.30;39.05;83625.63;5068779;28;20227;-53
2023/05/25 11:02:23;;;;;;;4.90;4.50;;;;;;;-144.30;39.47;83647.50;5070568;28;20311;-53
2023/05/25 11:04:50;;;;;;;5.35;4.68;;;;;;;-144.30;40.14;83707.09;5071035;28;20192;-53
2023/05/25 11:07:18;;;;;;;7.53;5.40;;;;;;;-144.30;42.22;83713.06;5070771;28;20710;-53
2023/05/25 11:09:58;;;;;;;10.30;5.53;;;;;;;-144.30;43.65;83762.72;5070483;28;20188;-53
2023/05/25 11:12:26;;;;;;;6.90;5.00;;;;;;;-144.30;45.35;83830.28;5070064;28;20195;-52
2023/05/25 11:15:14;;;;;;;6.28;5.78;;;;;;;-144.30;46.07;83804.47;5070697;28;20737;-54